Latest Weather Observations for Coonabarabran Airport

IDN60801

Issued at 4:35 am EDT Tuesday 25 November 2014 (issued every 30 minutes, with the page automatically refreshed every 10 minutes)

About weather observations | Map of weather stations | Latest weather observations for NSW | Other Formats
Station Details ID: 064017 Name: COONABARABRAN AIRPORT AWS Lat: -31.33 Lon: 149.27 Height: 645.0 m
Data from the previous 72 hours. | See also: Recent months for locations in New South Wales
Date/Time
EDT
Temp
°C
App
Temp
°C
Dew
Point
Rel
Hum
%
Delta-T
°C
Wind Press
QNH
hPa
Press
MSL
hPa
Rain
since 9 am
mm
Dir
 
Spd
km/h
Gust
km/h
Spd
kts
Gust
kts
25/04:30am 19.5 17.4 16.2 81 2.0 SW 22 33 12 18 1015.4 1012.5 5.0
25/04:00am 20.2 18.6 16.6 80 2.2 SW 20 28 11 15 1014.8 1011.9 5.0
25/03:30am 21.2 18.6 16.0 72 3.2 SW 24 35 13 19 1014.0 1011.1 5.0
25/03:00am 21.4 19.7 14.8 66 4.0 SW 17 20 9 11 1013.9 1011.0 5.0
25/02:30am 21.5 19.3 14.9 66 4.0 WSW 20 28 11 15 1014.0 1011.1 5.0
25/02:00am 20.9 19.8 15.4 71 3.4 WSW 15 22 8 12 1014.4 1011.4 5.0
25/01:30am 20.3 20.2 16.1 77 2.6 W 11 15 6 8 1014.8 1011.9 5.0
25/01:00am 20.3 20.1 16.7 80 2.2 W 13 20 7 11 1015.5 1012.6 5.0
25/12:30am 21.3 17.9 15.8 71 3.4 W 28 41 15 22 1016.1 1013.1 5.0
25/12:19am 22.7 19.1 15.3 63 4.5 W 28 46 15 25 1016.2 1013.3 5.0
25/12:14am 22.7 19.3 15.8 65 4.3 W 28 35 15 19 1016.4 1013.5 5.0
25/12:00am 21.9 21.9 16.2 70 3.5 NW 11 15 6 8 1016.3 1013.4 5.0
 
Date/Time
EDT
Temp
°C
App
Temp
°C
Dew
Point
Rel
Hum
%
Delta-T
°C
Wind Press
QNH
hPa
Press
MSL
hPa
Rain
since 9 am
mm
Dir
 
Spd
km/h
Gust
km/h
Spd
kts
Gust
kts
24/11:30pm 21.8 21.9 16.5 72 3.3 WNW 11 17 6 9 1016.3 1013.4 5.0
24/11:00pm 22.5 20.6 15.8 66 4.1 WSW 20 35 11 19 1016.2 1013.3 5.0
24/10:30pm 23.5 19.9 15.3 60 5.1 SW 28 43 15 23 1015.7 1012.8 5.0
24/10:08pm 25.2 21.3 14.3 50 6.7 WSW 28 46 15 25 1015.6 1012.7 5.0
24/10:00pm 25.6 22.3 14.1 49 7.0 W 24 35 13 19 1015.4 1012.5 5.0
24/09:30pm 24.6 23.6 15.5 57 5.6 WNW 15 26 8 14 1015.1 1012.2 5.0
24/09:00pm 24.2 23.5 16.5 62 4.8 W 15 17 8 9 1014.4 1011.4 5.0
24/08:30pm 24.2 22.0 17.0 64 4.6 WNW 24 35 13 19 1014.4 1011.4 5.0
24/08:18pm 24.8 21.8 16.8 61 5.1 NW 28 39 15 21 1014.4 1011.4 5.0
24/08:00pm 24.2 23.4 17.2 65 4.5 NNW 17 20 9 11 1014.2 1011.2 5.0
24/07:30pm 23.9 22.9 17.6 68 4.0 N 19 26 10 14 1013.7 1010.8 5.0
24/07:00pm 23.7 22.5 18.4 72 3.4 N 22 32 12 17 1013.5 1010.6 5.0
24/06:30pm 23.0 20.9 18.1 74 3.1 N 26 37 14 20 1013.2 1010.2 5.0
24/06:11pm 25.4 22.3 16.5 58 5.6 N 28 41 15 22 1012.3 1009.4 4.6
24/06:00pm 25.9 25.1 17.0 58 5.7 N 17 22 9 12 1012.1 1009.2 4.6
24/05:30pm 28.2 28.9 18.0 54 6.6 NNW 11 15 6 8 1011.6 1008.6 4.6
24/05:00pm 27.7 28.2 18.4 57 6.1 SW 13 20 7 11 1011.1 1008.1 4.6
24/04:30pm 26.4 25.1 17.2 57 5.9 WNW 20 28 11 15 1011.6 1008.6 4.6
24/04:00pm 26.2 25.1 16.4 54 6.2 WNW 17 35 9 19 1011.7 1008.7 4.6
24/03:45pm 22.9 19.9 16.7 68 3.9 W 28 46 15 25 1011.6 1008.6 4.6
24/03:40pm 22.3 17.4 15.4 65 4.2 WSW 35 46 19 25 1011.7 1008.7 4.6
24/03:37pm 19.2 8.9 11.7 62 4.3 WNW 57 76 31 41 1011.8 1008.8 3.8
24/03:35pm 21.6 10.8 12.5 56 5.3 WNW 61 76 33 41 1012.1 1009.2 2.0
24/03:32pm 26.7 16.3 14.8 48 7.4 WNW 63 76 34 41 1012.2 1009.3 0.0
24/03:31pm 30.0 24.4 13.3 36 10.2 W 35 72 19 39 1012.1 1009.2 0.0
24/03:30pm 31.3 26.0 12.6 31 11.4 W 32 52 17 28 1012.0 1009.1 0.0
24/03:00pm 34.1 29.2 12.4 26 13.3 NNW 30 48 16 26 1011.1 1008.1 0.0
24/02:31pm 33.8 29.3 12.7 27 13.0 NNW 28 46 15 25 1011.9 1008.9 0.0
24/02:30pm 34.1 29.3 13.0 28 13.0 NNW 30 46 16 25 1011.8 1008.8 0.0
24/02:04pm 35.3 30.1 12.9 26 13.9 NNW 32 50 17 27 1012.3 1009.4 0.0
24/02:00pm 35.1 29.9 12.7 26 13.8 NNW 32 46 17 25 1012.6 1009.6 0.0
24/01:49pm 35.2 29.4 12.8 26 13.9 NW 35 56 19 30 1012.7 1009.7 0.0
24/01:47pm 35.8 29.4 13.3 26 14.1 NW 39 56 21 30 1012.8 1009.8 0.0
24/01:34pm 35.2 31.0 13.4 27 13.6 N 28 46 15 25 1013.1 1010.1 0.0
24/01:30pm 35.6 32.4 14.3 28 13.5 NW 24 33 13 18 1013.2 1010.2 0.0
24/01:10pm 36.0 31.4 14.6 27 13.6 N 32 50 17 27 1013.2 1010.2 0.0
24/01:00pm 34.7 30.1 14.6 30 12.7 NNW 32 46 17 25 1013.6 1010.7 0.0
24/12:32pm 34.0 29.0 13.5 29 12.8 N 32 50 17 27 1013.9 1011.0 0.0
24/12:30pm 35.3 30.9 15.1 30 12.9 N 32 48 17 26 1013.8 1010.9 0.0
24/12:00pm 32.2 28.1 14.8 35 11.0 N 30 43 16 23 1014.4 1011.4 0.0
24/11:30am 30.9 27.0 14.5 37 10.2 N 28 37 15 20 1014.7 1011.7 0.0
24/11:00am 30.3 26.0 14.4 38 9.9 N 30 43 16 23 1014.9 1012.0 0.0
24/10:30am 30.4 25.5 13.7 36 10.3 N 32 43 17 23 1015.0 1012.1 0.0
24/10:00am 31.2 26.2 13.5 34 10.9 N 32 46 17 25 1014.9 1012.0 0.0
24/09:30am 29.3 25.5 13.5 38 9.7 N 26 41 14 22 1015.2 1012.3 0.0
24/09:00am 28.4 24.9 13.5 40 9.1 N 24 33 13 18 1015.2 1012.3 3.0
24/08:30am 27.4 24.0 13.7 43 8.4 N 24 33 13 18 1015.3 1012.4 3.0
24/08:00am 27.2 24.1 13.5 42 8.3 N 22 33 12 18 1015.3 1012.4 3.0
24/07:30am 25.0 22.3 14.5 52 6.4 N 22 28 12 15 1015.0 1012.1 3.0
24/07:00am 24.5 21.2 14.0 52 6.4 N 24 33 13 18 1014.8 1011.9 3.0
24/06:30am 22.9 20.4 14.2 58 5.3 N 20 30 11 16 1015.1 1012.2 3.0
24/06:00am 22.3 20.0 14.7 62 4.6 N 20 28 11 15 1015.2 1012.3 3.0
24/05:30am 22.4 20.2 15.0 63 4.5 N 20 28 11 15 1015.3 1012.4 3.0
24/05:00am 21.3 19.6 15.8 71 3.4 N 19 24 10 13 1015.4 1012.5 3.0
24/04:30am 22.4 20.7 14.8 62 4.6 N 17 22 9 12 1015.4 1012.5 3.0
24/04:00am 22.7 20.5 14.8 61 4.8 NNE 20 24 11 13 1015.4 1012.5 3.0
24/03:30am 21.6 21.0 15.7 69 3.6 N 13 20 7 11 1015.7 1012.8 3.0
24/03:00am 22.1 20.8 15.7 67 3.9 NNE 17 20 9 11 1015.9 1012.9 3.0
24/02:30am 23.1 20.9 14.9 60 5.0 NNE 20 24 11 13 1016.1 1013.1 3.0
24/02:00am 22.4 21.2 16.0 67 4.0 NNE 17 20 9 11 1016.6 1013.7 3.0
24/01:30am 22.7 20.6 16.3 67 4.0 NNE 22 33 12 18 1016.9 1014.0 3.0
24/01:00am 22.6 20.6 16.4 68 3.9 NE 22 28 12 15 1017.0 1014.1 3.0
24/12:30am 24.2 22.6 15.9 59 5.2 NE 19 24 10 13 1017.9 1015.0 2.2
24/12:00am 24.7 22.6 15.1 55 5.9 N 20 32 11 17 1018.0 1015.1 2.2
 
Date/Time
EDT
Temp
°C
App
Temp
°C
Dew
Point
Rel
Hum
%
Delta-T
°C
Wind Press
QNH
hPa
Press
MSL
hPa
Rain
since 9 am
mm
Dir
 
Spd
km/h
Gust
km/h
Spd
kts
Gust
kts
23/11:30pm 25.0 22.3 15.6 56 5.8 N 24 35 13 19 1018.0 1015.1 2.2
23/11:00pm 24.5 22.5 16.5 61 5.0 NE 22 28 12 15 1017.8 1014.9 2.2
23/10:30pm 28.1 23.9 12.4 37 9.4 NE 26 48 14 26 1016.8 1013.9 0.0
23/10:18pm 29.2 22.2 11.3 33 10.6 NE 39 61 21 33 1015.4 1012.5 0.0
23/10:12pm 30.5 23.7 10.5 29 11.7 NE 37 54 20 29 1015.2 1012.3 0.0
23/10:00pm 31.2 26.7 10.0 27 12.4 NNE 24 37 13 20 1014.6 1011.6 0.0
23/09:30pm 29.5 26.3 10.1 30 11.3 N 17 26 9 14 1014.3 1011.3 0.0
23/09:00pm 30.3 26.7 9.8 28 11.9 NNE 19 24 10 13 1013.8 1010.9 0.0
23/08:30pm 30.2 26.6 9.7 28 11.9 NNE 19 24 10 13 1013.7 1010.8 0.0
23/08:00pm 31.1 26.6 9.9 27 12.4 NNE 24 30 13 16 1013.7 1010.8 0.0
23/07:30pm 31.2 27.4 11.1 29 11.9 NE 22 28 12 15 1013.5 1010.6 0.0
23/07:00pm 33.4 28.0 9.4 23 14.0 NE 28 37 15 20 1013.3 1010.3 0.0
23/06:30pm 35.7 28.3 8.5 19 15.8 NE 37 46 20 25 1012.4 1009.5 0.0
23/06:16pm 36.9 31.1 7.8 17 16.9 NE 28 39 15 21 1012.6 1009.6 0.0
23/06:00pm 38.8 35.2 3.1 11 19.5 NNW 11 19 6 10 1012.2 1009.3 0.0
23/05:30pm 39.6 36.5 3.7 11 19.8 NW 9 19 5 10 1011.9 1008.9 0.0
23/05:00pm 37.8 34.4 7.7 16 17.5 S 15 22 8 12 1012.2 1009.3 0.0
23/04:30pm 37.3 34.7 6.3 15 17.6 W 9 17 5 9 1012.7 1009.7 0.0
23/04:00pm 39.2 34.4 5.7 13 19.0 W 20 28 11 15 1012.9 1009.9 0.0
23/03:30pm 39.2 35.6 6.8 14 18.7 W 15 24 8 13 1013.3 1010.3 0.0
23/03:00pm 39.6 35.5 6.1 13 19.2 WSW 17 33 9 18 1013.7 1010.8 0.0
23/02:30pm 38.6 34.9 6.3 14 18.4 W 15 26 8 14 1014.3 1011.3 0.0
23/02:00pm 38.3 33.8 6.1 14 18.3 NNW 19 33 10 18 1014.7 1011.7 0.0
23/01:30pm 38.4 33.2 7.2 15 18.0 NNW 24 41 13 22 1015.1 1012.2 0.0
23/01:00pm 37.1 31.9 8.8 18 16.6 NNW 26 30 14 16 1015.6 1012.7 0.0
23/12:30pm 36.0 32.1 10.9 22 15.2 N 22 35 12 19 1015.9 1012.9 0.0
23/12:00pm 37.0 33.2 12.4 23 15.2 N 24 35 13 19 1016.2 1013.3 0.0
23/11:30am 35.8 31.9 12.1 24 14.6 N 24 33 13 18 1016.2 1013.3 0.0
23/11:00am 35.3 33.0 14.6 29 13.1 NNW 20 32 11 17 1016.3 1013.4 0.0
23/10:30am 34.6 32.1 13.4 28 13.2 NNW 19 28 10 15 1016.6 1013.7 0.0
23/10:00am 33.3 30.4 13.9 31 12.1 N 22 32 12 17 1016.5 1013.6 0.0
23/09:30am 32.1 28.7 13.8 33 11.4 N 24 35 13 19 1016.3 1013.4 0.0
23/09:00am 31.2 28.8 14.4 36 10.5 N 20 26 11 14 1016.3 1013.4 0.0
23/08:30am 29.6 26.3 12.9 35 10.1 N 22 32 12 17 1016.0 1013.0 0.0
23/08:00am 28.5 24.4 11.6 35 10.0 N 24 33 13 18 1015.7 1012.8 0.0
23/07:30am 27.2 23.0 7.6 29 10.8 N 19 24 10 13 1015.6 1012.7 0.0
23/07:00am 25.6 21.4 5.8 28 10.5 N 17 20 9 11 1015.3 1012.4 0.0
23/06:30am 26.6 23.0 6.6 28 10.8 N 15 20 8 11 1014.9 1012.0 0.0
23/06:00am 25.9 22.7 4.9 26 11.0 N 11 15 6 8 1014.3 1011.3 0.0
23/05:30am 26.6 22.9 4.4 24 11.5 N 13 17 7 9 1013.9 1011.0 0.0
23/05:00am 26.8 22.9 3.3 22 12.0 N 13 19 7 10 1013.7 1010.8 0.0
23/04:30am 26.7 22.4 3.2 22 12.0 NNE 15 19 8 10 1013.6 1010.7 0.0
23/04:00am 27.3 23.0 3.1 21 12.4 NNE 15 17 8 9 1013.6 1010.7 0.0
23/03:30am 28.0 25.4 3.0 20 12.8 ESE 6 11 3 6 1013.7 1010.8 0.0
23/03:00am 27.3 24.0 2.4 20 12.6 E 9 13 5 7 1013.8 1010.9 0.0
23/02:30am 28.3 25.0 2.5 19 13.1 ESE 9 11 5 6 1013.9 1011.0 0.0
23/02:00am 28.2 25.5 2.4 19 13.1 SW 6 15 3 8 1014.3 1011.3 0.0
23/01:30am 28.0 24.7 2.2 19 13.0 SSW 9 13 5 7 1014.6 1011.6 0.0
23/01:00am 28.6 25.3 2.7 19 13.2 S 9 9 5 5 1014.7 1011.7 0.0
23/12:30am 28.3 25.0 2.5 19 13.1 SW 9 11 5 6 1015.1 1012.2 0.0
23/12:00am 28.5 24.9 2.7 19 13.2 SW 11 13 6 7 1015.1 1012.2 0.0
 
Date/Time
EDT
Temp
°C
App
Temp
°C
Dew
Point
Rel
Hum
%
Delta-T
°C
Wind Press
QNH
hPa
Press
MSL
hPa
Rain
since 9 am
mm
Dir
 
Spd
km/h
Gust
km/h
Spd
kts
Gust
kts
22/11:30pm 28.7 25.9 2.1 18 13.5 WSW 6 11 3 6 1015.0 1012.1 0.0
22/11:00pm 28.5 24.9 2.7 19 13.2 W 11 13 6 7 1015.1 1012.2 0.0
22/10:30pm 28.8 25.2 2.9 19 13.3 W 11 13 6 7 1015.2 1012.3 0.0
22/10:00pm 28.8 24.8 2.9 19 13.3 W 13 15 7 8 1015.2 1012.3 0.0
22/09:30pm 29.1 25.1 3.1 19 13.4 W 13 17 7 9 1014.9 1012.0 0.0
22/09:00pm 29.5 25.5 2.7 18 13.8 W 13 15 7 8 1014.7 1011.7 0.0
22/08:30pm 30.8 26.8 2.9 17 14.5 WSW 13 15 7 8 1014.3 1011.3 0.0
22/08:00pm 31.4 27.4 2.6 16 15.0 SW 13 17 7 9 1013.9 1011.0 0.0
22/07:30pm 32.3 29.0 2.4 15 15.5 SW 9 13 5 7 1013.5 1010.6 0.0
22/07:00pm 34.3 29.8 1.9 13 16.9 SSW 15 20 8 11 1013.1 1010.1 0.0
22/06:30pm 35.4 31.0 2.8 13 17.4 WSW 15 22 8 12 1012.8 1009.8 0.0
22/06:00pm 36.0 31.1 2.1 12 17.9 W 17 22 9 12 1012.7 1009.7 0.0
22/05:30pm 36.5 31.1 2.5 12 18.1 WNW 20 26 11 14 1012.4 1009.5 0.0
22/05:00pm 36.9 31.9 1.6 11 18.6 WSW 17 28 9 15 1012.4 1009.5 0.0
22/04:30pm 37.0 33.4 2.9 12 18.3 WNW 11 20 6 11 1012.6 1009.6 0.0
22/04:00pm 37.1 32.2 1.8 11 18.7 NNW 17 35 9 19 1012.8 1009.8 0.0
22/03:30pm 36.9 31.8 2.8 12 18.3 NW 19 30 10 16 1013.0 1010.0 0.0
22/03:00pm 36.9 31.0 1.6 11 18.6 NW 22 32 12 17 1013.3 1010.3 0.0
22/02:30pm 36.9 31.2 0.3 10 18.9 WNW 20 26 11 14 1013.6 1010.7 0.0
22/02:00pm 35.8 30.7 0.8 11 18.1 NNW 17 26 9 14 1013.7 1010.8 0.0
22/01:30pm 36.1 32.0 2.2 12 18.0 WNW 13 22 7 12 1014.0 1011.1 0.0
22/01:00pm 34.7 31.5 3.3 14 16.8 NE 9 19 5 10 1014.5 1011.5 0.0
22/12:30pm 34.6 31.6 4.2 15 16.5 SSE 9 19 5 10 1014.8 1011.9 0.0
22/12:00pm 33.5 30.3 5.1 17 15.5 NNW 11 20 6 11 1015.1 1012.2 0.0
22/11:30am 33.1 30.0 5.6 18 15.1 NW 11 19 6 10 1015.2 1012.3 0.0
22/11:00am 32.6 28.5 6.0 19 14.7 NNW 17 24 9 13 1015.6 1012.7 0.0
22/10:30am 32.3 29.2 7.2 21 14.1 W 13 17 7 9 1015.7 1012.8 0.0
22/10:00am 31.0 28.9 8.1 24 13.0 N 9 13 5 7 1016.1 1013.1 0.0
22/09:30am 30.3 27.4 8.1 25 12.5 N 13 19 7 10 1016.2 1013.3 0.0
22/09:00am 29.8 27.4 8.8 27 12.0 NNE 11 20 6 11 1016.2 1013.3 0.0
22/08:30am 28.5 25.7 8.7 29 11.2 NNE 13 19 7 10 1016.0 1013.0 0.0
22/08:00am 27.5 25.0 8.4 30 10.7 NNE 11 17 6 9 1015.7 1012.8 0.0
22/07:30am 27.2 25.6 8.1 30 10.6 NE 6 13 3 7 1015.2 1012.3 0.0
22/07:00am 25.1 23.7 9.0 36 9.0 WSW 6 11 3 6 1014.7 1011.7 0.0
22/06:30am 23.6 21.9 8.5 38 8.3 SW 7 13 4 7 1014.5 1011.5 0.0
22/06:00am 23.4 21.4 8.7 39 8.1 SSW 9 9 5 5 1014.2 1011.2 0.0
22/05:30am 22.7 20.6 8.4 40 7.8 SSW 9 13 5 7 1013.9 1011.0 0.0
22/05:00am 22.8 21.0 8.1 39 8.0 SSW 7 15 4 8 1013.6 1010.7 0.0

Other Formats:

Comma delimited format used in spreadsheet applications
http://www.bom.gov.au/fwo/IDN60801/IDN60801.95728.axf

JavaScript Object Notation format (JSON) in row-major order
http://www.bom.gov.au/fwo/IDN60801/IDN60801.95728.json